LFKJ 301030Z AUTO 22011KT 9999 SCT078 21/13 Q1015 TEMPO FEW035TCU

ElémentsDécodage
LFKJ Station météo située sur l'aérodrome de AJACCIO Campo dell'Oro
301030Z émis le 30 du mois à 10h30 UTC
AUTO Bulletin édité par un automate
22011KT vent du 220°, 11 noeuds
9999 visibilité horizontale supérieure à 10 Km
SCT078 nuages épars (3/8 à 4/8) à 7800 pieds
21/13 température 21°C, point de rosée 13°C
 soit une humidité relative de 60%
Q1015 la pression au niveau de la mer (QNH) est de 1015 hPa
TEMPO fluctuation temporaire prévue
FEW035TCU nuages rares (1/8 à 2/8) à 3500 pieds
 présence de cumulus congestus